sensor_id;sensor_type;location;lat;lon;timestamp;temperature;humidity
17639;DHT22;8938;53.546;9.954;2023-09-12T00:02:01;25.10;99.90
17639;DHT22;8938;53.546;9.954;2023-09-12T00:04:26;25.10;99.90
17639;DHT22;8938;53.546;9.954;2023-09-12T00:06:53;25.00;99.90
17639;DHT22;8938;53.546;9.954;2023-09-12T00:09:18;25.10;99.90
17639;DHT22;8938;53.546;9.954;2023-09-12T00:11:44;24.90;99.90
17639;DHT22;8938;53.546;9.954;2023-09-12T00:14:09;24.80;99.90
17639;DHT22;8938;53.546;9.954;2023-09-12T00:16:35;24.80;99.90
17639;DHT22;8938;53.546;9.954;2023-09-12T00:19:01;24.80;99.90
17639;DHT22;8938;53.546;9.954;2023-09-12T00:21:26;24.70;99.90
17639;DHT22;8938;53.546;9.954;2023-09-12T00:23:52;24.70;99.90
17639;DHT22;8938;53.546;9.954;2023-09-12T00:26:17;24.50;99.90
17639;DHT22;8938;53.546;9.954;2023-09-12T00:28:43;24.40;99.90
17639;DHT22;8938;53.546;9.954;2023-09-12T00:31:08;24.40;99.90
17639;DHT22;8938;53.546;9.954;2023-09-12T00:33:34;24.40;99.90
17639;DHT22;8938;53.546;9.954;2023-09-12T00:35:59;24.40;99.90
17639;DHT22;8938;53.546;9.954;2023-09-12T00:38:25;24.40;99.90
17639;DHT22;8938;53.546;9.954;2023-09-12T00:40:50;24.40;99.90
17639;DHT22;8938;53.546;9.954;2023-09-12T00:43:16;24.40;99.90
17639;DHT22;8938;53.546;9.954;2023-09-12T00:45:42;24.40;99.90
17639;DHT22;8938;53.546;9.954;2023-09-12T00:48:08;24.50;99.90
17639;DHT22;8938;53.546;9.954;2023-09-12T00:50:35;24.40;99.90
17639;DHT22;8938;53.546;9.954;2023-09-12T00:53:03;24.50;99.90
17639;DHT22;8938;53.546;9.954;2023-09-12T00:55:32;24.50;99.90
17639;DHT22;8938;53.546;9.954;2023-09-12T00:57:58;24.50;99.90
17639;DHT22;8938;53.546;9.954;2023-09-12T01:00:24;24.40;99.90
17639;DHT22;8938;53.546;9.954;2023-09-12T01:02:49;24.40;99.90
17639;DHT22;8938;53.546;9.954;2023-09-12T01:05:19;24.40;99.90
17639;DHT22;8938;53.546;9.954;2023-09-12T01:07:46;24.40;99.90
17639;DHT22;8938;53.546;9.954;2023-09-12T01:10:12;24.40;99.90
17639;DHT22;8938;53.546;9.954;2023-09-12T01:12:37;24.40;99.90
17639;DHT22;8938;53.546;9.954;2023-09-12T01:15:04;24.40;99.90
17639;DHT22;8938;53.546;9.954;2023-09-12T01:17:40;24.40;99.90
17639;DHT22;8938;53.546;9.954;2023-09-12T01:20:08;24.40;99.90
17639;DHT22;8938;53.546;9.954;2023-09-12T01:23:28;24.40;99.90
17639;DHT22;8938;53.546;9.954;2023-09-12T01:26:23;24.30;99.90
17639;DHT22;8938;53.546;9.954;2023-09-12T01:28:55;24.30;99.90
17639;DHT22;8938;53.546;9.954;2023-09-12T01:31:23;24.30;99.90
17639;DHT22;8938;53.546;9.954;2023-09-12T01:33:49;24.30;99.90
17639;DHT22;8938;53.546;9.954;2023-09-12T01:36:19;24.30;99.90
17639;DHT22;8938;53.546;9.954;2023-09-12T01:38:45;24.30;99.90
17639;DHT22;8938;53.546;9.954;2023-09-12T01:41:10;24.40;99.90
17639;DHT22;8938;53.546;9.954;2023-09-12T01:43:37;24.40;99.90
17639;DHT22;8938;53.546;9.954;2023-09-12T01:46:04;24.30;99.90
17639;DHT22;8938;53.546;9.954;2023-09-12T01:48:33;24.30;99.90
17639;DHT22;8938;53.546;9.954;2023-09-12T01:51:01;24.20;99.90
17639;DHT22;8938;53.546;9.954;2023-09-12T01:53:28;24.20;99.90
17639;DHT22;8938;53.546;9.954;2023-09-12T01:55:54;24.20;99.90
17639;DHT22;8938;53.546;9.954;2023-09-12T01:58:21;24.30;99.90
17639;DHT22;8938;53.546;9.954;2023-09-12T02:00:47;24.30;99.90
17639;DHT22;8938;53.546;9.954;2023-09-12T02:03:12;24.40;99.90
17639;DHT22;8938;53.546;9.954;2023-09-12T02:05:38;24.30;99.90
17639;DHT22;8938;53.546;9.954;2023-09-12T02:08:04;24.20;99.90
17639;DHT22;8938;53.546;9.954;2023-09-12T02:10:30;24.20;99.90
17639;DHT22;8938;53.546;9.954;2023-09-12T02:12:56;24.20;99.90
17639;DHT22;8938;53.546;9.954;2023-09-12T02:15:22;24.20;99.90
17639;DHT22;8938;53.546;9.954;2023-09-12T02:17:47;24.30;99.90
17639;DHT22;8938;53.546;9.954;2023-09-12T02:20:16;24.30;99.90
17639;DHT22;8938;53.546;9.954;2023-09-12T02:22:41;24.20;99.90
17639;DHT22;8938;53.546;9.954;2023-09-12T02:25:07;24.20;99.90
17639;DHT22;8938;53.546;9.954;2023-09-12T02:27:33;24.20;99.90
17639;DHT22;8938;53.546;9.954;2023-09-12T02:29:59;24.20;99.90
17639;DHT22;8938;53.546;9.954;2023-09-12T02:32:25;24.20;99.90
17639;DHT22;8938;53.546;9.954;2023-09-12T02:34:50;24.20;99.90
17639;DHT22;8938;53.546;9.954;2023-09-12T02:37:16;24.20;99.90
17639;DHT22;8938;53.546;9.954;2023-09-12T02:39:41;24.20;99.90
17639;DHT22;8938;53.546;9.954;2023-09-12T02:42:07;24.20;99.90
17639;DHT22;8938;53.546;9.954;2023-09-12T02:44:33;24.10;99.90
17639;DHT22;8938;53.546;9.954;2023-09-12T02:46:58;24.10;99.90
17639;DHT22;8938;53.546;9.954;2023-09-12T02:49:24;24.20;99.90
17639;DHT22;8938;53.546;9.954;2023-09-12T02:51:49;24.10;99.90
17639;DHT22;8938;53.546;9.954;2023-09-12T02:54:15;24.10;99.90
17639;DHT22;8938;53.546;9.954;2023-09-12T02:56:40;24.10;99.90
17639;DHT22;8938;53.546;9.954;2023-09-12T02:59:06;24.10;99.90
17639;DHT22;8938;53.546;9.954;2023-09-12T03:01:31;24.10;99.90
17639;DHT22;8938;53.546;9.954;2023-09-12T03:03:57;24.10;99.90
17639;DHT22;8938;53.546;9.954;2023-09-12T03:06:23;24.10;99.90
17639;DHT22;8938;53.546;9.954;2023-09-12T03:08:48;24.00;99.90
17639;DHT22;8938;53.546;9.954;2023-09-12T03:11:14;24.10;99.90
17639;DHT22;8938;53.546;9.954;2023-09-12T03:13:41;24.10;99.90
17639;DHT22;8938;53.546;9.954;2023-09-12T03:16:13;24.10;99.90
17639;DHT22;8938;53.546;9.954;2023-09-12T03:18:39;24.10;99.90
17639;DHT22;8938;53.546;9.954;2023-09-12T03:21:05;24.10;99.90
17639;DHT22;8938;53.546;9.954;2023-09-12T03:23:31;23.90;99.90
17639;DHT22;8938;53.546;9.954;2023-09-12T03:26:04;23.80;99.90
17639;DHT22;8938;53.546;9.954;2023-09-12T03:28:31;23.80;99.90
17639;DHT22;8938;53.546;9.954;2023-09-12T03:31:10;23.90;99.90
17639;DHT22;8938;53.546;9.954;2023-09-12T03:33:40;23.80;99.90
17639;DHT22;8938;53.546;9.954;2023-09-12T03:36:06;23.90;99.90
17639;DHT22;8938;53.546;9.954;2023-09-12T03:38:33;23.90;99.90
17639;DHT22;8938;53.546;9.954;2023-09-12T03:40:59;23.90;99.90
17639;DHT22;8938;53.546;9.954;2023-09-12T03:43:24;23.90;99.90
17639;DHT22;8938;53.546;9.954;2023-09-12T03:45:50;23.90;99.90
17639;DHT22;8938;53.546;9.954;2023-09-12T03:48:16;23.90;99.90
17639;DHT22;8938;53.546;9.954;2023-09-12T03:50:41;23.90;99.90
17639;DHT22;8938;53.546;9.954;2023-09-12T03:53:07;23.90;99.90
17639;DHT22;8938;53.546;9.954;2023-09-12T03:55:32;23.80;99.90
17639;DHT22;8938;53.546;9.954;2023-09-12T03:57:58;23.80;99.90
17639;DHT22;8938;53.546;9.954;2023-09-12T04:00:23;23.80;99.90
17639;DHT22;8938;53.546;9.954;2023-09-12T04:02:49;23.80;99.90
17639;DHT22;8938;53.546;9.954;2023-09-12T04:05:15;23.90;99.90
17639;DHT22;8938;53.546;9.954;2023-09-12T04:07:40;23.90;99.90
17639;DHT22;8938;53.546;9.954;2023-09-12T04:10:06;23.90;99.90
17639;DHT22;8938;53.546;9.954;2023-09-12T04:12:32;23.90;99.90
17639;DHT22;8938;53.546;9.954;2023-09-12T04:14:57;23.90;99.90
17639;DHT22;8938;53.546;9.954;2023-09-12T04:17:23;23.80;99.90
17639;DHT22;8938;53.546;9.954;2023-09-12T04:19:49;23.70;99.90
17639;DHT22;8938;53.546;9.954;2023-09-12T04:22:14;23.70;99.90
17639;DHT22;8938;53.546;9.954;2023-09-12T04:24:40;23.80;99.90
17639;DHT22;8938;53.546;9.954;2023-09-12T04:27:05;23.90;99.90
17639;DHT22;8938;53.546;9.954;2023-09-12T04:29:34;23.90;99.90
17639;DHT22;8938;53.546;9.954;2023-09-12T04:32:06;23.90;99.90
17639;DHT22;8938;53.546;9.954;2023-09-12T04:34:31;23.90;99.90
17639;DHT22;8938;53.546;9.954;2023-09-12T04:36:57;24.00;99.90
17639;DHT22;8938;53.546;9.954;2023-09-12T04:39:22;24.10;99.90
17639;DHT22;8938;53.546;9.954;2023-09-12T04:41:48;24.00;99.90
17639;DHT22;8938;53.546;9.954;2023-09-12T04:44:14;24.00;99.90
17639;DHT22;8938;53.546;9.954;2023-09-12T04:46:39;24.00;99.90
17639;DHT22;8938;53.546;9.954;2023-09-12T04:49:05;24.00;99.90
17639;DHT22;8938;53.546;9.954;2023-09-12T04:51:30;23.90;99.90
17639;DHT22;8938;53.546;9.954;2023-09-12T04:53:56;23.90;99.90
17639;DHT22;8938;53.546;9.954;2023-09-12T04:56:21;23.90;99.90
17639;DHT22;8938;53.546;9.954;2023-09-12T04:58:49;23.90;99.90
17639;DHT22;8938;53.546;9.954;2023-09-12T05:01:15;23.90;99.90
17639;DHT22;8938;53.546;9.954;2023-09-12T05:03:41;24.00;99.90
17639;DHT22;8938;53.546;9.954;2023-09-12T05:06:07;24.00;99.90
17639;DHT22;8938;53.546;9.954;2023-09-12T05:08:32;24.10;99.90
17639;DHT22;8938;53.546;9.954;2023-09-12T05:10:58;24.10;99.90
17639;DHT22;8938;53.546;9.954;2023-09-12T05:13:24;24.10;99.90
17639;DHT22;8938;53.546;9.954;2023-09-12T05:15:49;24.00;99.90
17639;DHT22;8938;53.546;9.954;2023-09-12T05:18:15;24.10;99.90
17639;DHT22;8938;53.546;9.954;2023-09-12T05:20:40;24.10;99.90
17639;DHT22;8938;53.546;9.954;2023-09-12T05:23:06;24.00;99.90
17639;DHT22;8938;53.546;9.954;2023-09-12T05:25:31;24.00;99.90
17639;DHT22;8938;53.546;9.954;2023-09-12T05:27:57;24.00;99.90
17639;DHT22;8938;53.546;9.954;2023-09-12T05:30:22;24.00;99.90
17639;DHT22;8938;53.546;9.954;2023-09-12T05:32:48;23.90;99.90
17639;DHT22;8938;53.546;9.954;2023-09-12T05:35:14;23.90;99.90
17639;DHT22;8938;53.546;9.954;2023-09-12T05:37:39;23.80;99.90
17639;DHT22;8938;53.546;9.954;2023-09-12T05:40:05;23.80;99.90
17639;DHT22;8938;53.546;9.954;2023-09-12T05:42:31;23.70;99.90
17639;DHT22;8938;53.546;9.954;2023-09-12T05:44:57;23.70;99.90
17639;DHT22;8938;53.546;9.954;2023-09-12T05:47:22;23.70;99.90
17639;DHT22;8938;53.546;9.954;2023-09-12T05:49:48;23.80;99.90
17639;DHT22;8938;53.546;9.954;2023-09-12T05:52:14;23.90;99.90
17639;DHT22;8938;53.546;9.954;2023-09-12T05:54:40;24.00;99.90
17639;DHT22;8938;53.546;9.954;2023-09-12T05:57:06;24.10;99.90
17639;DHT22;8938;53.546;9.954;2023-09-12T05:59:32;24.00;99.90
17639;DHT22;8938;53.546;9.954;2023-09-12T06:01:58;24.10;99.90
17639;DHT22;8938;53.546;9.954;2023-09-12T06:04:24;24.10;99.90
17639;DHT22;8938;53.546;9.954;2023-09-12T06:06:49;24.20;99.90
17639;DHT22;8938;53.546;9.954;2023-09-12T06:09:15;24.30;99.90
17639;DHT22;8938;53.546;9.954;2023-09-12T06:11:40;24.40;99.90
17639;DHT22;8938;53.546;9.954;2023-09-12T06:14:06;24.40;99.90
17639;DHT22;8938;53.546;9.954;2023-09-12T06:16:31;24.30;99.90
17639;DHT22;8938;53.546;9.954;2023-09-12T06:18:57;24.30;99.90
17639;DHT22;8938;53.546;9.954;2023-09-12T06:21:22;24.40;99.90
17639;DHT22;8938;53.546;9.954;2023-09-12T06:23:57;24.40;99.90
17639;DHT22;8938;53.546;9.954;2023-09-12T06:26:32;24.40;99.90
17639;DHT22;8938;53.546;9.954;2023-09-12T06:28:58;24.40;99.90
17639;DHT22;8938;53.546;9.954;2023-09-12T06:31:24;24.40;99.90
17639;DHT22;8938;53.546;9.954;2023-09-12T06:33:49;24.40;99.90
17639;DHT22;8938;53.546;9.954;2023-09-12T06:36:15;24.40;99.90
17639;DHT22;8938;53.546;9.954;2023-09-12T06:38:40;24.30;99.90
17639;DHT22;8938;53.546;9.954;2023-09-12T06:41:06;24.30;99.90
17639;DHT22;8938;53.546;9.954;2023-09-12T06:43:31;24.40;99.90
17639;DHT22;8938;53.546;9.954;2023-09-12T06:45:57;24.40;99.90
17639;DHT22;8938;53.546;9.954;2023-09-12T06:48:22;24.40;99.90
17639;DHT22;8938;53.546;9.954;2023-09-12T06:50:48;24.30;99.90
17639;DHT22;8938;53.546;9.954;2023-09-12T06:53:13;24.30;99.90
17639;DHT22;8938;53.546;9.954;2023-09-12T06:55:39;24.30;99.90
17639;DHT22;8938;53.546;9.954;2023-09-12T06:58:05;24.30;99.90
17639;DHT22;8938;53.546;9.954;2023-09-12T07:00:30;24.30;99.90
17639;DHT22;8938;53.546;9.954;2023-09-12T07:02:56;24.40;99.90
17639;DHT22;8938;53.546;9.954;2023-09-12T07:05:22;24.50;99.90
17639;DHT22;8938;53.546;9.954;2023-09-12T07:07:50;24.60;99.90
17639;DHT22;8938;53.546;9.954;2023-09-12T07:10:17;24.60;99.90
17639;DHT22;8938;53.546;9.954;2023-09-12T07:12:42;24.70;99.90
17639;DHT22;8938;53.546;9.954;2023-09-12T07:15:08;24.80;99.90
17639;DHT22;8938;53.546;9.954;2023-09-12T07:17:34;24.70;99.90
17639;DHT22;8938;53.546;9.954;2023-09-12T07:20:00;24.80;99.90
17639;DHT22;8938;53.546;9.954;2023-09-12T07:22:26;24.70;99.90
17639;DHT22;8938;53.546;9.954;2023-09-12T07:24:51;24.70;99.90
17639;DHT22;8938;53.546;9.954;2023-09-12T07:27:17;24.70;99.90
17639;DHT22;8938;53.546;9.954;2023-09-12T07:29:43;24.70;99.90
17639;DHT22;8938;53.546;9.954;2023-09-12T07:32:08;24.60;99.90
17639;DHT22;8938;53.546;9.954;2023-09-12T07:34:34;24.60;99.90
17639;DHT22;8938;53.546;9.954;2023-09-12T07:37:00;24.70;99.90
17639;DHT22;8938;53.546;9.954;2023-09-12T07:39:26;24.60;99.90
17639;DHT22;8938;53.546;9.954;2023-09-12T07:41:51;24.70;99.90
17639;DHT22;8938;53.546;9.954;2023-09-12T07:44:17;24.70;99.90
17639;DHT22;8938;53.546;9.954;2023-09-12T07:46:43;24.70;99.90
17639;DHT22;8938;53.546;9.954;2023-09-12T07:49:09;24.70;99.90
17639;DHT22;8938;53.546;9.954;2023-09-12T07:51:35;24.70;99.90
17639;DHT22;8938;53.546;9.954;2023-09-12T07:54:01;24.80;99.90
17639;DHT22;8938;53.546;9.954;2023-09-12T07:56:27;24.90;99.90
17639;DHT22;8938;53.546;9.954;2023-09-12T07:58:52;25.00;99.90
17639;DHT22;8938;53.546;9.954;2023-09-12T08:01:18;25.10;99.90
17639;DHT22;8938;53.546;9.954;2023-09-12T08:03:44;25.10;99.90
17639;DHT22;8938;53.546;9.954;2023-09-12T08:06:09;25.20;99.90
17639;DHT22;8938;53.546;9.954;2023-09-12T08:08:35;25.20;99.90
17639;DHT22;8938;53.546;9.954;2023-09-12T08:11:01;25.20;99.90
17639;DHT22;8938;53.546;9.954;2023-09-12T08:13:28;25.30;99.90
17639;DHT22;8938;53.546;9.954;2023-09-12T08:15:54;25.30;99.90
17639;DHT22;8938;53.546;9.954;2023-09-12T08:18:20;25.30;99.90
17639;DHT22;8938;53.546;9.954;2023-09-12T08:20:46;25.40;99.90
17639;DHT22;8938;53.546;9.954;2023-09-12T08:23:11;25.50;99.90
17639;DHT22;8938;53.546;9.954;2023-09-12T08:25:37;25.60;99.90
17639;DHT22;8938;53.546;9.954;2023-09-12T08:28:02;25.70;99.90
17639;DHT22;8938;53.546;9.954;2023-09-12T08:30:28;25.70;99.90
17639;DHT22;8938;53.546;9.954;2023-09-12T08:32:58;25.80;99.90
17639;DHT22;8938;53.546;9.954;2023-09-12T08:35:23;26.00;99.90
17639;DHT22;8938;53.546;9.954;2023-09-12T08:37:49;26.10;99.90
17639;DHT22;8938;53.546;9.954;2023-09-12T08:40:14;26.30;99.90
17639;DHT22;8938;53.546;9.954;2023-09-12T08:42:42;26.40;99.90
17639;DHT22;8938;53.546;9.954;2023-09-12T08:45:14;26.50;99.90
17639;DHT22;8938;53.546;9.954;2023-09-12T08:47:44;26.50;99.90
17639;DHT22;8938;53.546;9.954;2023-09-12T08:50:14;26.40;99.90
17639;DHT22;8938;53.546;9.954;2023-09-12T08:52:42;26.30;99.90
17639;DHT22;8938;53.546;9.954;2023-09-12T08:55:09;26.20;99.90
17639;DHT22;8938;53.546;9.954;2023-09-12T08:57:37;26.10;99.90
17639;DHT22;8938;53.546;9.954;2023-09-12T09:00:04;26.00;99.90
17639;DHT22;8938;53.546;9.954;2023-09-12T09:02:33;25.90;99.90
17639;DHT22;8938;53.546;9.954;2023-09-12T09:05:00;25.80;99.90
17639;DHT22;8938;53.546;9.954;2023-09-12T09:07:27;25.80;99.90
17639;DHT22;8938;53.546;9.954;2023-09-12T09:09:53;25.80;99.90
17639;DHT22;8938;53.546;9.954;2023-09-12T09:12:21;25.80;99.90
17639;DHT22;8938;53.546;9.954;2023-09-12T09:14:46;25.90;99.90
17639;DHT22;8938;53.546;9.954;2023-09-12T09:17:12;26.00;99.90
17639;DHT22;8938;53.546;9.954;2023-09-12T09:19:43;26.20;99.90
17639;DHT22;8938;53.546;9.954;2023-09-12T09:22:10;26.40;99.90
17639;DHT22;8938;53.546;9.954;2023-09-12T09:24:35;26.40;99.90
17639;DHT22;8938;53.546;9.954;2023-09-12T09:27:01;26.60;99.90
17639;DHT22;8938;53.546;9.954;2023-09-12T09:29:27;26.50;99.90
17639;DHT22;8938;53.546;9.954;2023-09-12T09:31:59;26.50;99.90
17639;DHT22;8938;53.546;9.954;2023-09-12T09:34:26;26.50;99.90
17639;DHT22;8938;53.546;9.954;2023-09-12T09:36:56;26.50;99.90
17639;DHT22;8938;53.546;9.954;2023-09-12T09:39:27;26.50;99.90
17639;DHT22;8938;53.546;9.954;2023-09-12T09:41:55;26.60;99.90
17639;DHT22;8938;53.546;9.954;2023-09-12T09:44:26;26.70;99.90
17639;DHT22;8938;53.546;9.954;2023-09-12T09:46:59;26.80;99.90
17639;DHT22;8938;53.546;9.954;2023-09-12T09:49:28;26.90;99.90
17639;DHT22;8938;53.546;9.954;2023-09-12T09:51:56;26.90;99.90
17639;DHT22;8938;53.546;9.954;2023-09-12T09:54:24;27.00;99.90
17639;DHT22;8938;53.546;9.954;2023-09-12T09:56:53;27.00;99.90
17639;DHT22;8938;53.546;9.954;2023-09-12T09:59:22;27.00;99.90
17639;DHT22;8938;53.546;9.954;2023-09-12T10:01:49;26.90;99.90
17639;DHT22;8938;53.546;9.954;2023-09-12T10:04:15;26.90;99.90
17639;DHT22;8938;53.546;9.954;2023-09-12T10:06:44;26.90;99.90
17639;DHT22;8938;53.546;9.954;2023-09-12T10:09:12;27.00;99.90
17639;DHT22;8938;53.546;9.954;2023-09-12T10:11:43;26.90;99.90
17639;DHT22;8938;53.546;9.954;2023-09-12T10:14:09;26.80;99.90
17639;DHT22;8938;53.546;9.954;2023-09-12T10:16:36;26.80;99.90
17639;DHT22;8938;53.546;9.954;2023-09-12T10:19:17;26.70;99.90
17639;DHT22;8938;53.546;9.954;2023-09-12T10:22:20;26.60;99.90
17639;DHT22;8938;53.546;9.954;2023-09-12T10:24:46;26.40;99.90
17639;DHT22;8938;53.546;9.954;2023-09-12T10:27:14;26.20;99.90
17639;DHT22;8938;53.546;9.954;2023-09-12T10:29:40;26.10;99.90
17639;DHT22;8938;53.546;9.954;2023-09-12T10:32:06;26.20;99.90
17639;DHT22;8938;53.546;9.954;2023-09-12T10:34:32;26.20;99.90
17639;DHT22;8938;53.546;9.954;2023-09-12T10:36:58;26.30;99.90
17639;DHT22;8938;53.546;9.954;2023-09-12T10:39:31;26.30;99.90
17639;DHT22;8938;53.546;9.954;2023-09-12T10:41:58;26.40;99.90
17639;DHT22;8938;53.546;9.954;2023-09-12T10:44:25;26.40;99.90
17639;DHT22;8938;53.546;9.954;2023-09-12T10:46:52;26.30;99.90
17639;DHT22;8938;53.546;9.954;2023-09-12T10:49:19;26.30;99.90
17639;DHT22;8938;53.546;9.954;2023-09-12T10:51:46;26.20;99.90
17639;DHT22;8938;53.546;9.954;2023-09-12T10:54:16;26.10;99.90
17639;DHT22;8938;53.546;9.954;2023-09-12T10:57:10;26.00;99.90
17639;DHT22;8938;53.546;9.954;2023-09-12T11:04:55;26.00;99.90
17639;DHT22;8938;53.546;9.954;2023-09-12T11:12:52;26.00;99.90
17639;DHT22;8938;53.546;9.954;2023-09-12T11:15:20;25.80;99.90
17639;DHT22;8938;53.546;9.954;2023-09-12T11:17:48;25.70;99.90
17639;DHT22;8938;53.546;9.954;2023-09-12T11:20:15;25.60;99.90
17639;DHT22;8938;53.546;9.954;2023-09-12T11:22:45;25.50;99.90
17639;DHT22;8938;53.546;9.954;2023-09-12T11:25:21;25.50;99.90
17639;DHT22;8938;53.546;9.954;2023-09-12T11:30:24;25.50;99.90
17639;DHT22;8938;53.546;9.954;2023-09-12T11:32:56;25.50;99.90
17639;DHT22;8938;53.546;9.954;2023-09-12T11:35:24;25.50;99.90
17639;DHT22;8938;53.546;9.954;2023-09-12T11:37:58;25.50;99.90
17639;DHT22;8938;53.546;9.954;2023-09-12T11:43:08;25.50;99.90
17639;DHT22;8938;53.546;9.954;2023-09-12T11:45:44;25.50;99.90
17639;DHT22;8938;53.546;9.954;2023-09-12T11:48:09;25.50;99.90
17639;DHT22;8938;53.546;9.954;2023-09-12T11:50:36;25.50;99.90
17639;DHT22;8938;53.546;9.954;2023-09-12T11:55:50;25.40;99.90
17639;DHT22;8938;53.546;9.954;2023-09-12T11:58:18;25.40;99.90
17639;DHT22;8938;53.546;9.954;2023-09-12T12:03:11;25.40;99.90
17639;DHT22;8938;53.546;9.954;2023-09-12T12:05:37;25.40;99.90
17639;DHT22;8938;53.546;9.954;2023-09-12T12:08:03;25.40;99.90
17639;DHT22;8938;53.546;9.954;2023-09-12T12:10:29;25.50;99.90
17639;DHT22;8938;53.546;9.954;2023-09-12T12:12:55;25.50;99.90
17639;DHT22;8938;53.546;9.954;2023-09-12T12:15:21;25.50;99.90
17639;DHT22;8938;53.546;9.954;2023-09-12T12:17:47;25.50;99.90
17639;DHT22;8938;53.546;9.954;2023-09-12T12:20:12;25.50;99.90
17639;DHT22;8938;53.546;9.954;2023-09-12T12:22:39;25.50;99.90
17639;DHT22;8938;53.546;9.954;2023-09-12T12:25:11;25.60;99.90
17639;DHT22;8938;53.546;9.954;2023-09-12T12:27:38;25.60;99.90
17639;DHT22;8938;53.546;9.954;2023-09-12T12:30:09;25.70;99.90
17639;DHT22;8938;53.546;9.954;2023-09-12T12:32:46;25.80;99.90
17639;DHT22;8938;53.546;9.954;2023-09-12T12:35:22;25.90;99.90
17639;DHT22;8938;53.546;9.954;2023-09-12T12:37:49;25.90;99.90
17639;DHT22;8938;53.546;9.954;2023-09-12T12:40:16;26.00;99.90
17639;DHT22;8938;53.546;9.954;2023-09-12T12:42:45;26.00;99.90
17639;DHT22;8938;53.546;9.954;2023-09-12T12:45:19;26.00;99.90
17639;DHT22;8938;53.546;9.954;2023-09-12T12:47:45;26.00;99.90
17639;DHT22;8938;53.546;9.954;2023-09-12T12:50:15;26.00;99.90
17639;DHT22;8938;53.546;9.954;2023-09-12T12:52:41;26.00;99.90
17639;DHT22;8938;53.546;9.954;2023-09-12T12:55:10;26.00;99.90
17639;DHT22;8938;53.546;9.954;2023-09-12T12:57:40;26.00;99.90
17639;DHT22;8938;53.546;9.954;2023-09-12T13:00:11;26.10;99.90
17639;DHT22;8938;53.546;9.954;2023-09-12T13:02:38;26.00;99.90
17639;DHT22;8938;53.546;9.954;2023-09-12T13:05:17;26.00;99.90
17639;DHT22;8938;53.546;9.954;2023-09-12T13:07:44;25.90;99.90
17639;DHT22;8938;53.546;9.954;2023-09-12T13:10:09;25.80;99.90
17639;DHT22;8938;53.546;9.954;2023-09-12T13:12:35;25.80;99.90
17639;DHT22;8938;53.546;9.954;2023-09-12T13:15:01;25.70;99.90
17639;DHT22;8938;53.546;9.954;2023-09-12T13:17:27;25.70;99.90
17639;DHT22;8938;53.546;9.954;2023-09-12T13:19:52;25.70;99.90
17639;DHT22;8938;53.546;9.954;2023-09-12T13:22:18;25.70;99.90
17639;DHT22;8938;53.546;9.954;2023-09-12T13:24:43;25.80;99.90
17639;DHT22;8938;53.546;9.954;2023-09-12T13:27:09;25.70;99.90
17639;DHT22;8938;53.546;9.954;2023-09-12T13:29:34;25.60;99.90
17639;DHT22;8938;53.546;9.954;2023-09-12T13:32:00;25.60;99.90
17639;DHT22;8938;53.546;9.954;2023-09-12T13:34:26;25.50;99.90
17639;DHT22;8938;53.546;9.954;2023-09-12T13:36:52;25.50;99.90
17639;DHT22;8938;53.546;9.954;2023-09-12T13:39:18;25.60;99.90
17639;DHT22;8938;53.546;9.954;2023-09-12T13:41:43;25.80;99.90
17639;DHT22;8938;53.546;9.954;2023-09-12T13:44:10;25.90;99.90
17639;DHT22;8938;53.546;9.954;2023-09-12T13:46:36;26.00;99.90
17639;DHT22;8938;53.546;9.954;2023-09-12T13:49:02;26.10;99.90
17639;DHT22;8938;53.546;9.954;2023-09-12T13:51:29;26.10;99.90
17639;DHT22;8938;53.546;9.954;2023-09-12T13:53:54;26.10;99.90
17639;DHT22;8938;53.546;9.954;2023-09-12T13:56:20;26.00;99.90
17639;DHT22;8938;53.546;9.954;2023-09-12T13:58:45;26.10;99.90
17639;DHT22;8938;53.546;9.954;2023-09-12T14:01:11;26.20;99.90
17639;DHT22;8938;53.546;9.954;2023-09-12T14:03:37;26.30;99.90
17639;DHT22;8938;53.546;9.954;2023-09-12T14:06:03;26.40;99.90
17639;DHT22;8938;53.546;9.954;2023-09-12T14:08:29;26.40;99.90
17639;DHT22;8938;53.546;9.954;2023-09-12T14:10:54;26.30;99.90
17639;DHT22;8938;53.546;9.954;2023-09-12T14:13:20;26.20;99.90
17639;DHT22;8938;53.546;9.954;2023-09-12T14:15:45;26.20;99.90
17639;DHT22;8938;53.546;9.954;2023-09-12T14:18:11;26.30;99.90
17639;DHT22;8938;53.546;9.954;2023-09-12T14:20:37;26.20;99.90
17639;DHT22;8938;53.546;9.954;2023-09-12T14:23:03;26.10;99.90
17639;DHT22;8938;53.546;9.954;2023-09-12T14:25:29;26.10;99.90
17639;DHT22;8938;53.546;9.954;2023-09-12T14:27:54;26.10;99.90
17639;DHT22;8938;53.546;9.954;2023-09-12T14:30:20;26.10;99.90
17639;DHT22;8938;53.546;9.954;2023-09-12T14:32:47;26.10;99.90
17639;DHT22;8938;53.546;9.954;2023-09-12T14:35:13;26.10;99.90
17639;DHT22;8938;53.546;9.954;2023-09-12T14:37:39;26.10;99.90
17639;DHT22;8938;53.546;9.954;2023-09-12T14:40:05;26.20;99.90
17639;DHT22;8938;53.546;9.954;2023-09-12T14:42:31;26.30;99.90
17639;DHT22;8938;53.546;9.954;2023-09-12T14:44:57;26.20;99.90
17639;DHT22;8938;53.546;9.954;2023-09-12T14:47:22;26.20;99.90
17639;DHT22;8938;53.546;9.954;2023-09-12T14:49:49;26.20;99.90
17639;DHT22;8938;53.546;9.954;2023-09-12T14:52:15;26.30;99.90
17639;DHT22;8938;53.546;9.954;2023-09-12T14:54:40;26.30;99.90
17639;DHT22;8938;53.546;9.954;2023-09-12T14:57:06;26.40;99.90
17639;DHT22;8938;53.546;9.954;2023-09-12T14:59:31;26.30;99.90
17639;DHT22;8938;53.546;9.954;2023-09-12T15:01:57;26.30;99.90
17639;DHT22;8938;53.546;9.954;2023-09-12T15:04:22;26.30;99.90
17639;DHT22;8938;53.546;9.954;2023-09-12T15:06:49;26.30;99.90
17639;DHT22;8938;53.546;9.954;2023-09-12T15:09:15;26.40;99.90
17639;DHT22;8938;53.546;9.954;2023-09-12T15:11:40;26.50;99.90
17639;DHT22;8938;53.546;9.954;2023-09-12T15:14:06;26.60;99.90
17639;DHT22;8938;53.546;9.954;2023-09-12T15:16:31;26.50;99.90
17639;DHT22;8938;53.546;9.954;2023-09-12T15:19:00;26.50;99.90
17639;DHT22;8938;53.546;9.954;2023-09-12T15:21:25;26.50;99.90
17639;DHT22;8938;53.546;9.954;2023-09-12T15:23:51;26.60;99.90
17639;DHT22;8938;53.546;9.954;2023-09-12T15:26:16;26.60;99.90
17639;DHT22;8938;53.546;9.954;2023-09-12T15:28:42;26.70;99.90
17639;DHT22;8938;53.546;9.954;2023-09-12T15:31:07;26.60;99.90
17639;DHT22;8938;53.546;9.954;2023-09-12T15:33:33;26.60;99.90
17639;DHT22;8938;53.546;9.954;2023-09-12T15:35:59;26.50;99.90
17639;DHT22;8938;53.546;9.954;2023-09-12T15:38:24;26.50;99.90
17639;DHT22;8938;53.546;9.954;2023-09-12T15:40:50;26.50;99.90
17639;DHT22;8938;53.546;9.954;2023-09-12T15:43:15;26.40;99.90
17639;DHT22;8938;53.546;9.954;2023-09-12T15:45:41;26.50;99.90
17639;DHT22;8938;53.546;9.954;2023-09-12T15:48:06;26.50;99.90
17639;DHT22;8938;53.546;9.954;2023-09-12T15:50:32;26.40;99.90
17639;DHT22;8938;53.546;9.954;2023-09-12T15:52:57;26.40;99.90
17639;DHT22;8938;53.546;9.954;2023-09-12T15:55:23;26.40;99.90
17639;DHT22;8938;53.546;9.954;2023-09-12T15:57:50;26.30;99.90
17639;DHT22;8938;53.546;9.954;2023-09-12T16:00:15;26.30;99.90
17639;DHT22;8938;53.546;9.954;2023-09-12T16:02:41;26.30;99.90
17639;DHT22;8938;53.546;9.954;2023-09-12T16:05:08;26.30;99.90